AIRPORT ID: 9V6

DATE: 2024-02-27 ZULU TIME: 8.55 LOCAL TIME: 1.55


METAR K9V6 270855Z AUTO 33015G25KT 10SM M03/M05 A2947

ALTIMETER: A2947 Q998

DENSITY ALT: 2500 Ft

WIND DIRECT: 340

WIND SPEED: 15 Gust

WIND CONDITIONS:

VISIBILTY: 10SM 9999M

TEMPERATURE: 27 F -3 C

DEW POINT: 23 F -5 C

HUMID: 86%

LCL: 500-1,000 feet

RADIO CHECK: 0

ADVISARIES: 0

GREETINGS: 0

CONVERSATIONS: 0